sensor_id;sensor_type;location;lat;lon;timestamp;P1;durP1;ratioP1;P2;durP2;ratioP2
7003;SDS011;3542;48.812;9.146;2023-01-29T00:01:02;12.70;;;6.03;;
7003;SDS011;3542;48.812;9.146;2023-01-29T00:03:28;10.37;;;5.13;;
7003;SDS011;3542;48.812;9.146;2023-01-29T00:05:54;11.30;;;6.10;;
7003;SDS011;3542;48.812;9.146;2023-01-29T00:08:19;9.40;;;6.10;;
7003;SDS011;3542;48.812;9.146;2023-01-29T00:10:45;9.03;;;5.83;;
7003;SDS011;3542;48.812;9.146;2023-01-29T00:13:10;9.60;;;5.60;;
7003;SDS011;3542;48.812;9.146;2023-01-29T00:15:36;8.70;;;5.60;;
7003;SDS011;3542;48.812;9.146;2023-01-29T00:18:01;11.83;;;7.13;;
7003;SDS011;3542;48.812;9.146;2023-01-29T00:20:26;14.30;;;7.90;;
7003;SDS011;3542;48.812;9.146;2023-01-29T00:22:52;13.00;;;7.10;;
7003;SDS011;3542;48.812;9.146;2023-01-29T00:25:17;12.03;;;6.90;;
7003;SDS011;3542;48.812;9.146;2023-01-29T00:27:43;15.77;;;7.30;;
7003;SDS011;3542;48.812;9.146;2023-01-29T00:30:09;11.60;;;7.40;;
7003;SDS011;3542;48.812;9.146;2023-01-29T00:32:38;13.20;;;6.80;;
7003;SDS011;3542;48.812;9.146;2023-01-29T00:35:05;10.90;;;6.33;;
7003;SDS011;3542;48.812;9.146;2023-01-29T00:37:31;10.90;;;5.87;;
7003;SDS011;3542;48.812;9.146;2023-01-29T00:39:57;14.33;;;6.83;;
7003;SDS011;3542;48.812;9.146;2023-01-29T00:42:22;36.00;;;7.50;;
7003;SDS011;3542;48.812;9.146;2023-01-29T00:45:07;31.33;;;7.23;;
7003;SDS011;3542;48.812;9.146;2023-01-29T00:47:33;32.47;;;6.80;;
7003;SDS011;3542;48.812;9.146;2023-01-29T00:50:00;27.33;;;7.27;;
7003;SDS011;3542;48.812;9.146;2023-01-29T00:52:30;26.90;;;6.43;;
7003;SDS011;3542;48.812;9.146;2023-01-29T00:54:56;19.00;;;6.10;;
7003;SDS011;3542;48.812;9.146;2023-01-29T00:57:24;16.83;;;6.03;;
7003;SDS011;3542;48.812;9.146;2023-01-29T00:59:51;15.83;;;6.40;;
7003;SDS011;3542;48.812;9.146;2023-01-29T01:02:17;14.40;;;6.00;;
7003;SDS011;3542;48.812;9.146;2023-01-29T01:05:02;20.63;;;6.80;;
7003;SDS011;3542;48.812;9.146;2023-01-29T01:07:29;17.50;;;6.77;;
7003;SDS011;3542;48.812;9.146;2023-01-29T01:09:55;16.10;;;6.00;;
7003;SDS011;3542;48.812;9.146;2023-01-29T01:12:39;13.43;;;5.67;;
7003;SDS011;3542;48.812;9.146;2023-01-29T01:15:05;16.40;;;6.67;;
7003;SDS011;3542;48.812;9.146;2023-01-29T01:17:30;19.13;;;6.17;;
7003;SDS011;3542;48.812;9.146;2023-01-29T01:19:56;15.70;;;6.10;;
7003;SDS011;3542;48.812;9.146;2023-01-29T01:22:21;16.13;;;6.33;;
7003;SDS011;3542;48.812;9.146;2023-01-29T01:24:47;13.60;;;6.97;;
7003;SDS011;3542;48.812;9.146;2023-01-29T01:27:12;13.83;;;6.50;;
7003;SDS011;3542;48.812;9.146;2023-01-29T01:29:38;12.97;;;6.57;;
7003;SDS011;3542;48.812;9.146;2023-01-29T01:32:04;15.43;;;5.73;;
7003;SDS011;3542;48.812;9.146;2023-01-29T01:34:30;18.93;;;7.63;;
7003;SDS011;3542;48.812;9.146;2023-01-29T01:36:55;15.43;;;6.27;;
7003;SDS011;3542;48.812;9.146;2023-01-29T01:39:22;17.53;;;5.00;;
7003;SDS011;3542;48.812;9.146;2023-01-29T01:41:49;18.73;;;6.10;;
7003;SDS011;3542;48.812;9.146;2023-01-29T01:47:26;17.53;;;7.17;;
7003;SDS011;3542;48.812;9.146;2023-01-29T01:50:23;14.90;;;6.60;;
7003;SDS011;3542;48.812;9.146;2023-01-29T01:53:11;15.07;;;5.93;;
7003;SDS011;3542;48.812;9.146;2023-01-29T01:55:49;12.47;;;6.40;;
7003;SDS011;3542;48.812;9.146;2023-01-29T01:58:23;13.83;;;6.83;;
7003;SDS011;3542;48.812;9.146;2023-01-29T03:31:29;15.50;;;6.90;;
7003;SDS011;3542;48.812;9.146;2023-01-29T03:34:20;11.70;;;5.47;;
7003;SDS011;3542;48.812;9.146;2023-01-29T03:36:53;12.27;;;5.80;;
7003;SDS011;3542;48.812;9.146;2023-01-29T03:39:24;14.33;;;6.30;;
7003;SDS011;3542;48.812;9.146;2023-01-29T03:44:50;13.57;;;6.47;;
7003;SDS011;3542;48.812;9.146;2023-01-29T03:50:06;9.33;;;5.60;;
7003;SDS011;3542;48.812;9.146;2023-01-29T03:52:58;11.80;;;6.30;;
7003;SDS011;3542;48.812;9.146;2023-01-29T03:55:40;12.70;;;6.50;;
7003;SDS011;3542;48.812;9.146;2023-01-29T03:58:19;13.87;;;6.63;;
7003;SDS011;3542;48.812;9.146;2023-01-29T04:01:16;10.57;;;5.73;;
7003;SDS011;3542;48.812;9.146;2023-01-29T04:03:55;10.17;;;6.00;;
7003;SDS011;3542;48.812;9.146;2023-01-29T04:06:29;12.20;;;6.53;;
7003;SDS011;3542;48.812;9.146;2023-01-29T04:09:02;13.70;;;6.17;;
7003;SDS011;3542;48.812;9.146;2023-01-29T04:11:30;14.73;;;6.60;;
7003;SDS011;3542;48.812;9.146;2023-01-29T04:14:00;10.30;;;5.93;;
7003;SDS011;3542;48.812;9.146;2023-01-29T04:16:27;12.00;;;5.10;;
7003;SDS011;3542;48.812;9.146;2023-01-29T04:18:57;10.33;;;6.20;;
7003;SDS011;3542;48.812;9.146;2023-01-29T04:21:23;12.80;;;5.97;;
7003;SDS011;3542;48.812;9.146;2023-01-29T04:23:49;10.63;;;5.87;;
7003;SDS011;3542;48.812;9.146;2023-01-29T04:26:21;15.00;;;5.87;;
7003;SDS011;3542;48.812;9.146;2023-01-29T04:31:43;12.90;;;6.43;;
7003;SDS011;3542;48.812;9.146;2023-01-29T04:34:27;10.80;;;6.60;;
7003;SDS011;3542;48.812;9.146;2023-01-29T04:37:15;11.07;;;5.70;;
7003;SDS011;3542;48.812;9.146;2023-01-29T04:39:48;13.63;;;7.03;;
7003;SDS011;3542;48.812;9.146;2023-01-29T04:42:51;10.77;;;5.73;;
7003;SDS011;3542;48.812;9.146;2023-01-29T04:45:21;12.77;;;6.00;;
7003;SDS011;3542;48.812;9.146;2023-01-29T04:50:33;12.53;;;6.10;;
7003;SDS011;3542;48.812;9.146;2023-01-29T04:56:40;9.20;;;5.90;;
7003;SDS011;3542;48.812;9.146;2023-01-29T04:58:41;13.53;;;5.90;;
7003;SDS011;3542;48.812;9.146;2023-01-29T05:01:12;10.17;;;5.33;;
7003;SDS011;3542;48.812;9.146;2023-01-29T05:03:41;12.27;;;5.80;;
7003;SDS011;3542;48.812;9.146;2023-01-29T05:06:10;9.80;;;5.70;;
7003;SDS011;3542;48.812;9.146;2023-01-29T05:08:36;11.00;;;6.13;;
7003;SDS011;3542;48.812;9.146;2023-01-29T05:11:03;10.50;;;6.17;;
7003;SDS011;3542;48.812;9.146;2023-01-29T05:13:29;8.33;;;6.07;;
7003;SDS011;3542;48.812;9.146;2023-01-29T05:18:32;12.70;;;5.67;;
7003;SDS011;3542;48.812;9.146;2023-01-29T05:20:59;10.00;;;5.37;;
7003;SDS011;3542;48.812;9.146;2023-01-29T05:23:28;14.23;;;6.17;;
7003;SDS011;3542;48.812;9.146;2023-01-29T05:25:54;10.57;;;4.77;;
7003;SDS011;3542;48.812;9.146;2023-01-29T05:28:20;13.07;;;6.57;;
7003;SDS011;3542;48.812;9.146;2023-01-29T05:30:47;9.53;;;5.90;;
7003;SDS011;3542;48.812;9.146;2023-01-29T05:33:18;7.93;;;5.67;;
7003;SDS011;3542;48.812;9.146;2023-01-29T05:35:48;9.80;;;5.33;;
7003;SDS011;3542;48.812;9.146;2023-01-29T05:38:14;12.30;;;6.00;;
7003;SDS011;3542;48.812;9.146;2023-01-29T05:40:41;10.40;;;5.90;;
7003;SDS011;3542;48.812;9.146;2023-01-29T05:43:17;16.40;;;6.03;;
7003;SDS011;3542;48.812;9.146;2023-01-29T05:48:19;11.93;;;6.30;;
7003;SDS011;3542;48.812;9.146;2023-01-29T05:50:44;11.90;;;5.83;;
7003;SDS011;3542;48.812;9.146;2023-01-29T05:53:10;11.07;;;6.10;;
7003;SDS011;3542;48.812;9.146;2023-01-29T05:55:35;9.30;;;4.97;;
7003;SDS011;3542;48.812;9.146;2023-01-29T05:58:01;10.77;;;6.37;;
7003;SDS011;3542;48.812;9.146;2023-01-29T06:00:26;9.27;;;6.17;;
7003;SDS011;3542;48.812;9.146;2023-01-29T06:02:52;7.50;;;5.30;;
7003;SDS011;3542;48.812;9.146;2023-01-29T06:05:17;10.60;;;6.20;;
7003;SDS011;3542;48.812;9.146;2023-01-29T06:07:43;11.20;;;6.07;;
7003;SDS011;3542;48.812;9.146;2023-01-29T06:10:15;14.90;;;5.70;;
7003;SDS011;3542;48.812;9.146;2023-01-29T06:12:42;12.03;;;6.00;;
7003;SDS011;3542;48.812;9.146;2023-01-29T06:15:08;9.00;;;5.37;;
7003;SDS011;3542;48.812;9.146;2023-01-29T06:17:34;7.10;;;5.13;;
7003;SDS011;3542;48.812;9.146;2023-01-29T06:20:00;9.40;;;5.43;;
7003;SDS011;3542;48.812;9.146;2023-01-29T06:22:26;10.17;;;5.80;;
7003;SDS011;3542;48.812;9.146;2023-01-29T06:24:51;15.53;;;6.70;;
7003;SDS011;3542;48.812;9.146;2023-01-29T06:27:17;13.20;;;5.70;;
7003;SDS011;3542;48.812;9.146;2023-01-29T06:29:42;12.63;;;5.87;;
7003;SDS011;3542;48.812;9.146;2023-01-29T06:32:08;11.60;;;5.63;;
7003;SDS011;3542;48.812;9.146;2023-01-29T06:34:33;11.17;;;5.60;;
7003;SDS011;3542;48.812;9.146;2023-01-29T06:36:59;13.10;;;6.53;;
7003;SDS011;3542;48.812;9.146;2023-01-29T06:39:24;7.80;;;6.10;;
7003;SDS011;3542;48.812;9.146;2023-01-29T06:41:50;7.40;;;5.87;;
7003;SDS011;3542;48.812;9.146;2023-01-29T06:44:15;10.20;;;6.37;;
7003;SDS011;3542;48.812;9.146;2023-01-29T06:46:41;8.67;;;5.60;;
7003;SDS011;3542;48.812;9.146;2023-01-29T06:49:06;9.17;;;5.83;;
7003;SDS011;3542;48.812;9.146;2023-01-29T06:51:32;14.57;;;6.20;;
7003;SDS011;3542;48.812;9.146;2023-01-29T06:53:58;12.67;;;6.23;;
7003;SDS011;3542;48.812;9.146;2023-01-29T06:56:23;13.30;;;5.40;;
7003;SDS011;3542;48.812;9.146;2023-01-29T06:58:49;10.00;;;6.87;;
7003;SDS011;3542;48.812;9.146;2023-01-29T07:01:14;10.30;;;5.60;;
7003;SDS011;3542;48.812;9.146;2023-01-29T07:03:40;10.00;;;5.77;;
7003;SDS011;3542;48.812;9.146;2023-01-29T07:06:06;8.57;;;5.77;;
7003;SDS011;3542;48.812;9.146;2023-01-29T07:08:35;12.90;;;6.63;;
7003;SDS011;3542;48.812;9.146;2023-01-29T07:11:01;8.97;;;5.90;;
7003;SDS011;3542;48.812;9.146;2023-01-29T07:13:28;8.27;;;5.27;;
7003;SDS011;3542;48.812;9.146;2023-01-29T07:15:57;12.77;;;6.63;;
7003;SDS011;3542;48.812;9.146;2023-01-29T07:18:24;11.27;;;6.50;;
7003;SDS011;3542;48.812;9.146;2023-01-29T07:20:50;12.40;;;6.60;;
7003;SDS011;3542;48.812;9.146;2023-01-29T07:23:15;12.37;;;6.30;;
7003;SDS011;3542;48.812;9.146;2023-01-29T07:25:41;10.30;;;6.57;;
7003;SDS011;3542;48.812;9.146;2023-01-29T07:28:07;11.33;;;6.20;;
7003;SDS011;3542;48.812;9.146;2023-01-29T07:30:33;8.50;;;5.40;;
7003;SDS011;3542;48.812;9.146;2023-01-29T07:33:02;9.63;;;6.30;;
7003;SDS011;3542;48.812;9.146;2023-01-29T07:35:28;12.13;;;6.73;;
7003;SDS011;3542;48.812;9.146;2023-01-29T07:37:54;12.30;;;6.67;;
7003;SDS011;3542;48.812;9.146;2023-01-29T07:40:20;10.53;;;6.43;;
7003;SDS011;3542;48.812;9.146;2023-01-29T07:42:45;11.23;;;6.30;;
7003;SDS011;3542;48.812;9.146;2023-01-29T07:45:11;8.90;;;5.40;;
7003;SDS011;3542;48.812;9.146;2023-01-29T07:47:37;10.80;;;6.50;;
7003;SDS011;3542;48.812;9.146;2023-01-29T07:50:03;13.70;;;6.30;;
7003;SDS011;3542;48.812;9.146;2023-01-29T07:52:29;12.70;;;6.20;;
7003;SDS011;3542;48.812;9.146;2023-01-29T07:54:56;9.53;;;6.60;;
7003;SDS011;3542;48.812;9.146;2023-01-29T07:57:21;10.20;;;6.37;;
7003;SDS011;3542;48.812;9.146;2023-01-29T07:59:47;10.93;;;6.23;;
7003;SDS011;3542;48.812;9.146;2023-01-29T08:02:13;13.33;;;7.63;;
7003;SDS011;3542;48.812;9.146;2023-01-29T08:04:38;9.07;;;6.70;;
7003;SDS011;3542;48.812;9.146;2023-01-29T08:07:04;10.07;;;6.47;;
7003;SDS011;3542;48.812;9.146;2023-01-29T08:09:30;10.80;;;6.73;;
7003;SDS011;3542;48.812;9.146;2023-01-29T08:11:56;11.03;;;6.33;;
7003;SDS011;3542;48.812;9.146;2023-01-29T08:14:22;10.13;;;6.63;;
7003;SDS011;3542;48.812;9.146;2023-01-29T08:16:48;11.20;;;5.90;;
7003;SDS011;3542;48.812;9.146;2023-01-29T08:19:13;12.87;;;6.70;;
7003;SDS011;3542;48.812;9.146;2023-01-29T08:21:39;10.00;;;6.10;;
7003;SDS011;3542;48.812;9.146;2023-01-29T08:24:04;10.27;;;6.17;;
7003;SDS011;3542;48.812;9.146;2023-01-29T08:26:30;10.43;;;6.40;;
7003;SDS011;3542;48.812;9.146;2023-01-29T08:28:56;15.40;;;7.10;;
7003;SDS011;3542;48.812;9.146;2023-01-29T08:31:21;13.33;;;7.00;;
7003;SDS011;3542;48.812;9.146;2023-01-29T08:33:47;15.17;;;7.13;;
7003;SDS011;3542;48.812;9.146;2023-01-29T08:36:13;12.53;;;6.60;;
7003;SDS011;3542;48.812;9.146;2023-01-29T08:38:39;12.80;;;6.77;;
7003;SDS011;3542;48.812;9.146;2023-01-29T08:41:04;19.03;;;6.73;;
7003;SDS011;3542;48.812;9.146;2023-01-29T08:43:30;16.00;;;7.20;;
7003;SDS011;3542;48.812;9.146;2023-01-29T08:45:56;15.40;;;7.30;;
7003;SDS011;3542;48.812;9.146;2023-01-29T08:48:22;14.87;;;6.93;;
7003;SDS011;3542;48.812;9.146;2023-01-29T08:50:49;10.53;;;6.40;;
7003;SDS011;3542;48.812;9.146;2023-01-29T08:53:15;13.50;;;7.20;;
7003;SDS011;3542;48.812;9.146;2023-01-29T08:55:40;11.13;;;6.10;;
7003;SDS011;3542;48.812;9.146;2023-01-29T08:58:06;16.90;;;7.27;;
7003;SDS011;3542;48.812;9.146;2023-01-29T09:00:34;10.57;;;5.90;;
7003;SDS011;3542;48.812;9.146;2023-01-29T09:03:00;12.70;;;7.60;;
7003;SDS011;3542;48.812;9.146;2023-01-29T09:05:28;12.67;;;6.80;;
7003;SDS011;3542;48.812;9.146;2023-01-29T09:07:57;12.47;;;6.90;;
7003;SDS011;3542;48.812;9.146;2023-01-29T09:10:23;13.50;;;6.17;;
7003;SDS011;3542;48.812;9.146;2023-01-29T09:12:49;12.87;;;6.60;;
7003;SDS011;3542;48.812;9.146;2023-01-29T09:15:14;13.40;;;7.23;;
7003;SDS011;3542;48.812;9.146;2023-01-29T09:17:40;11.30;;;6.43;;
7003;SDS011;3542;48.812;9.146;2023-01-29T09:20:05;13.10;;;6.50;;
7003;SDS011;3542;48.812;9.146;2023-01-29T09:22:31;11.90;;;6.90;;
7003;SDS011;3542;48.812;9.146;2023-01-29T09:24:57;15.33;;;7.17;;
7003;SDS011;3542;48.812;9.146;2023-01-29T09:27:23;14.53;;;7.37;;
7003;SDS011;3542;48.812;9.146;2023-01-29T09:29:49;11.53;;;7.23;;
7003;SDS011;3542;48.812;9.146;2023-01-29T09:32:14;12.60;;;7.40;;
7003;SDS011;3542;48.812;9.146;2023-01-29T09:34:40;15.80;;;9.20;;
7003;SDS011;3542;48.812;9.146;2023-01-29T09:37:05;16.53;;;9.43;;
7003;SDS011;3542;48.812;9.146;2023-01-29T09:39:31;18.10;;;8.13;;
7003;SDS011;3542;48.812;9.146;2023-01-29T09:47:26;17.60;;;8.50;;
7003;SDS011;3542;48.812;9.146;2023-01-29T09:52:34;18.73;;;8.87;;
7003;SDS011;3542;48.812;9.146;2023-01-29T09:57:51;15.80;;;8.60;;
7003;SDS011;3542;48.812;9.146;2023-01-29T10:00:32;16.47;;;8.70;;
7003;SDS011;3542;48.812;9.146;2023-01-29T10:20:50;17.40;;;7.30;;
7003;SDS011;3542;48.812;9.146;2023-01-29T10:23:27;14.20;;;7.33;;
7003;SDS011;3542;48.812;9.146;2023-01-29T10:25:56;16.03;;;8.37;;
7003;SDS011;3542;48.812;9.146;2023-01-29T10:30:53;23.17;;;8.80;;
7003;SDS011;3542;48.812;9.146;2023-01-29T10:33:28;11.97;;;8.30;;
7003;SDS011;3542;48.812;9.146;2023-01-29T10:36:01;17.43;;;8.07;;
7003;SDS011;3542;48.812;9.146;2023-01-29T10:38:37;15.27;;;8.37;;
7003;SDS011;3542;48.812;9.146;2023-01-29T10:44:13;17.30;;;7.93;;
7003;SDS011;3542;48.812;9.146;2023-01-29T10:52:18;14.50;;;9.07;;
7003;SDS011;3542;48.812;9.146;2023-01-29T10:57:48;17.40;;;10.87;;
7003;SDS011;3542;48.812;9.146;2023-01-29T11:00:36;10.47;;;8.10;;
7003;SDS011;3542;48.812;9.146;2023-01-29T11:03:17;13.10;;;7.70;;
7003;SDS011;3542;48.812;9.146;2023-01-29T11:05:53;12.10;;;7.90;;
7003;SDS011;3542;48.812;9.146;2023-01-29T11:08:30;13.03;;;8.70;;
7003;SDS011;3542;48.812;9.146;2023-01-29T11:11:06;11.43;;;8.70;;
7003;SDS011;3542;48.812;9.146;2023-01-29T11:13:57;12.00;;;8.73;;
7003;SDS011;3542;48.812;9.146;2023-01-29T11:16:24;13.70;;;8.43;;
7003;SDS011;3542;48.812;9.146;2023-01-29T11:21:24;10.70;;;8.50;;
7003;SDS011;3542;48.812;9.146;2023-01-29T11:24:04;23.47;;;8.27;;
7003;SDS011;3542;48.812;9.146;2023-01-29T11:26:42;11.77;;;8.63;;
7003;SDS011;3542;48.812;9.146;2023-01-29T11:32:05;13.80;;;7.90;;
7003;SDS011;3542;48.812;9.146;2023-01-29T11:34:35;15.50;;;8.80;;
7003;SDS011;3542;48.812;9.146;2023-01-29T11:37:21;14.97;;;8.07;;
7003;SDS011;3542;48.812;9.146;2023-01-29T11:39:46;13.70;;;8.50;;
7003;SDS011;3542;48.812;9.146;2023-01-29T11:42:18;13.33;;;8.43;;
7003;SDS011;3542;48.812;9.146;2023-01-29T11:44:45;11.67;;;9.03;;
7003;SDS011;3542;48.812;9.146;2023-01-29T11:47:18;12.37;;;8.47;;
7003;SDS011;3542;48.812;9.146;2023-01-29T11:49:48;13.83;;;9.20;;
7003;SDS011;3542;48.812;9.146;2023-01-29T11:52:19;12.10;;;9.03;;
7003;SDS011;3542;48.812;9.146;2023-01-29T11:54:49;14.23;;;9.40;;
7003;SDS011;3542;48.812;9.146;2023-01-29T11:57:28;13.60;;;9.33;;
7003;SDS011;3542;48.812;9.146;2023-01-29T11:59:55;14.07;;;9.07;;
7003;SDS011;3542;48.812;9.146;2023-01-29T12:04:54;14.27;;;10.03;;
7003;SDS011;3542;48.812;9.146;2023-01-29T12:07:24;16.13;;;8.90;;
7003;SDS011;3542;48.812;9.146;2023-01-29T12:09:54;12.23;;;9.30;;
7003;SDS011;3542;48.812;9.146;2023-01-29T12:17:35;14.23;;;9.10;;
7003;SDS011;3542;48.812;9.146;2023-01-29T12:20:03;11.80;;;8.70;;
7003;SDS011;3542;48.812;9.146;2023-01-29T12:22:44;14.33;;;9.33;;
7003;SDS011;3542;48.812;9.146;2023-01-29T12:25:22;22.57;;;9.93;;
7003;SDS011;3542;48.812;9.146;2023-01-29T12:28:15;14.47;;;10.50;;
7003;SDS011;3542;48.812;9.146;2023-01-29T12:30:50;10.77;;;8.50;;
7003;SDS011;3542;48.812;9.146;2023-01-29T12:33:36;19.07;;;9.20;;
7003;SDS011;3542;48.812;9.146;2023-01-29T12:36:09;14.50;;;10.10;;
7003;SDS011;3542;48.812;9.146;2023-01-29T12:38:42;10.90;;;8.37;;
7003;SDS011;3542;48.812;9.146;2023-01-29T12:43:48;13.50;;;9.50;;
7003;SDS011;3542;48.812;9.146;2023-01-29T12:46:37;16.30;;;10.70;;
7003;SDS011;3542;48.812;9.146;2023-01-29T12:49:11;14.73;;;11.33;;
7003;SDS011;3542;48.812;9.146;2023-01-29T12:51:45;15.10;;;9.10;;
7003;SDS011;3542;48.812;9.146;2023-01-29T12:54:30;13.13;;;9.40;;
7003;SDS011;3542;48.812;9.146;2023-01-29T12:57:24;14.07;;;10.23;;
7003;SDS011;3542;48.812;9.146;2023-01-29T13:00:04;15.90;;;9.50;;
7003;SDS011;3542;48.812;9.146;2023-01-29T13:02:37;18.13;;;11.10;;
7003;SDS011;3542;48.812;9.146;2023-01-29T13:07:56;40.30;;;34.63;;
7003;SDS011;3542;48.812;9.146;2023-01-29T13:10:34;78.93;;;42.80;;
7003;SDS011;3542;48.812;9.146;2023-01-29T13:13:04;20.27;;;11.10;;
7003;SDS011;3542;48.812;9.146;2023-01-29T13:15:45;16.10;;;9.90;;
7003;SDS011;3542;48.812;9.146;2023-01-29T13:21:12;16.60;;;10.10;;
7003;SDS011;3542;48.812;9.146;2023-01-29T13:23:42;16.30;;;9.03;;
7003;SDS011;3542;48.812;9.146;2023-01-29T13:26:17;20.63;;;10.10;;
7003;SDS011;3542;48.812;9.146;2023-01-29T13:28:45;42.83;;;35.87;;
7003;SDS011;3542;48.812;9.146;2023-01-29T13:33:53;16.83;;;9.97;;
7003;SDS011;3542;48.812;9.146;2023-01-29T13:36:43;19.20;;;10.40;;
7003;SDS011;3542;48.812;9.146;2023-01-29T13:39:19;18.97;;;11.00;;
7003;SDS011;3542;48.812;9.146;2023-01-29T13:41:55;16.93;;;10.37;;
7003;SDS011;3542;48.812;9.146;2023-01-29T13:44:28;19.87;;;11.70;;
7003;SDS011;3542;48.812;9.146;2023-01-29T13:47:08;16.07;;;10.30;;
7003;SDS011;3542;48.812;9.146;2023-01-29T13:49:36;15.53;;;10.93;;
7003;SDS011;3542;48.812;9.146;2023-01-29T13:55:03;18.33;;;11.70;;
7003;SDS011;3542;48.812;9.146;2023-01-29T14:13:47;15.10;;;10.27;;
7003;SDS011;3542;48.812;9.146;2023-01-29T14:19:21;17.07;;;10.80;;
7003;SDS011;3542;48.812;9.146;2023-01-29T14:21:29;13.60;;;10.70;;
7003;SDS011;3542;48.812;9.146;2023-01-29T14:24:16;17.70;;;10.63;;
7003;SDS011;3542;48.812;9.146;2023-01-29T14:26:44;15.50;;;10.23;;
7003;SDS011;3542;48.812;9.146;2023-01-29T14:29:23;14.30;;;10.77;;
7003;SDS011;3542;48.812;9.146;2023-01-29T14:31:58;17.70;;;11.00;;
7003;SDS011;3542;48.812;9.146;2023-01-29T14:34:31;12.37;;;9.20;;
7003;SDS011;3542;48.812;9.146;2023-01-29T14:37:01;14.40;;;9.80;;
7003;SDS011;3542;48.812;9.146;2023-01-29T14:42:27;14.30;;;10.03;;
7003;SDS011;3542;48.812;9.146;2023-01-29T14:45:42;87.67;;;55.87;;
7003;SDS011;3542;48.812;9.146;2023-01-29T14:53:00;16.57;;;9.90;;
7003;SDS011;3542;48.812;9.146;2023-01-29T14:55:38;18.70;;;11.67;;
7003;SDS011;3542;48.812;9.146;2023-01-29T15:00:49;14.97;;;10.07;;
7003;SDS011;3542;48.812;9.146;2023-01-29T15:03:40;14.83;;;10.53;;
7003;SDS011;3542;48.812;9.146;2023-01-29T15:06:08;17.70;;;10.10;;
7003;SDS011;3542;48.812;9.146;2023-01-29T15:08:44;17.40;;;10.97;;
7003;SDS011;3542;48.812;9.146;2023-01-29T15:14:21;22.83;;;16.23;;
7003;SDS011;3542;48.812;9.146;2023-01-29T15:22:01;14.80;;;9.63;;
7003;SDS011;3542;48.812;9.146;2023-01-29T15:24:38;17.10;;;11.40;;
7003;SDS011;3542;48.812;9.146;2023-01-29T15:27:06;21.70;;;16.20;;
7003;SDS011;3542;48.812;9.146;2023-01-29T15:29:36;15.50;;;10.97;;
7003;SDS011;3542;48.812;9.146;2023-01-29T15:32:02;14.83;;;10.63;;
7003;SDS011;3542;48.812;9.146;2023-01-29T15:34:28;15.82;;;12.10;;
7003;SDS011;3542;48.812;9.146;2023-01-29T15:36:54;15.20;;;11.27;;
7003;SDS011;3542;48.812;9.146;2023-01-29T15:39:21;13.40;;;10.33;;
7003;SDS011;3542;48.812;9.146;2023-01-29T15:41:48;15.53;;;9.03;;
7003;SDS011;3542;48.812;9.146;2023-01-29T15:44:28;29.83;;;25.67;;
7003;SDS011;3542;48.812;9.146;2023-01-29T15:46:55;17.53;;;10.73;;
7003;SDS011;3542;48.812;9.146;2023-01-29T15:52:02;16.00;;;10.20;;
7003;SDS011;3542;48.812;9.146;2023-01-29T15:54:36;16.43;;;10.20;;
7003;SDS011;3542;48.812;9.146;2023-01-29T15:57:02;19.37;;;11.60;;
7003;SDS011;3542;48.812;9.146;2023-01-29T15:59:29;17.53;;;10.10;;
7003;SDS011;3542;48.812;9.146;2023-01-29T16:02:16;17.93;;;12.40;;
7003;SDS011;3542;48.812;9.146;2023-01-29T16:04:43;24.50;;;12.40;;
7003;SDS011;3542;48.812;9.146;2023-01-29T16:07:09;17.50;;;10.90;;
7003;SDS011;3542;48.812;9.146;2023-01-29T16:09:35;20.47;;;10.50;;
7003;SDS011;3542;48.812;9.146;2023-01-29T16:12:01;16.97;;;11.40;;
7003;SDS011;3542;48.812;9.146;2023-01-29T16:14:27;15.40;;;10.07;;
7003;SDS011;3542;48.812;9.146;2023-01-29T16:16:54;20.50;;;11.40;;
7003;SDS011;3542;48.812;9.146;2023-01-29T16:19:21;20.07;;;9.90;;
7003;SDS011;3542;48.812;9.146;2023-01-29T16:21:51;18.83;;;11.03;;
7003;SDS011;3542;48.812;9.146;2023-01-29T16:24:24;30.93;;;13.23;;
7003;SDS011;3542;48.812;9.146;2023-01-29T16:26:51;25.60;;;12.07;;
7003;SDS011;3542;48.812;9.146;2023-01-29T16:29:26;26.50;;;12.37;;
7003;SDS011;3542;48.812;9.146;2023-01-29T16:31:57;26.17;;;12.77;;
7003;SDS011;3542;48.812;9.146;2023-01-29T16:34:27;27.03;;;11.13;;
7003;SDS011;3542;48.812;9.146;2023-01-29T16:37:02;25.60;;;12.03;;
7003;SDS011;3542;48.812;9.146;2023-01-29T16:39:31;25.40;;;11.67;;
7003;SDS011;3542;48.812;9.146;2023-01-29T16:42:06;23.40;;;11.77;;
7003;SDS011;3542;48.812;9.146;2023-01-29T16:47:11;21.27;;;10.23;;
7003;SDS011;3542;48.812;9.146;2023-01-29T16:49:49;21.33;;;10.10;;
7003;SDS011;3542;48.812;9.146;2023-01-29T16:52:19;30.40;;;10.27;;
7003;SDS011;3542;48.812;9.146;2023-01-29T16:55:13;33.10;;;11.33;;
7003;SDS011;3542;48.812;9.146;2023-01-29T16:57:45;87.67;;;58.77;;
7003;SDS011;3542;48.812;9.146;2023-01-29T17:00:26;93.17;;;23.50;;
7003;SDS011;3542;48.812;9.146;2023-01-29T17:02:54;55.65;;;14.23;;
7003;SDS011;3542;48.812;9.146;2023-01-29T17:05:25;34.08;;;12.60;;
7003;SDS011;3542;48.812;9.146;2023-01-29T17:07:56;27.67;;;10.87;;
7003;SDS011;3542;48.812;9.146;2023-01-29T17:10:24;31.40;;;11.70;;
7003;SDS011;3542;48.812;9.146;2023-01-29T17:12:53;28.20;;;14.17;;
7003;SDS011;3542;48.812;9.146;2023-01-29T17:20:44;32.90;;;11.93;;
7003;SDS011;3542;48.812;9.146;2023-01-29T17:23:09;26.20;;;10.87;;
7003;SDS011;3542;48.812;9.146;2023-01-29T17:25:35;25.30;;;10.90;;
7003;SDS011;3542;48.812;9.146;2023-01-29T17:28:01;28.53;;;11.60;;
7003;SDS011;3542;48.812;9.146;2023-01-29T17:30:28;35.13;;;11.27;;
7003;SDS011;3542;48.812;9.146;2023-01-29T17:32:58;29.40;;;10.60;;
7003;SDS011;3542;48.812;9.146;2023-01-29T17:35:26;30.97;;;10.67;;
7003;SDS011;3542;48.812;9.146;2023-01-29T17:37:52;28.27;;;10.67;;
7003;SDS011;3542;48.812;9.146;2023-01-29T17:42:52;33.37;;;15.23;;
7003;SDS011;3542;48.812;9.146;2023-01-29T17:45:17;34.53;;;13.73;;
7003;SDS011;3542;48.812;9.146;2023-01-29T17:47:43;30.27;;;14.00;;
7003;SDS011;3542;48.812;9.146;2023-01-29T17:50:20;28.33;;;12.60;;
7003;SDS011;3542;48.812;9.146;2023-01-29T17:52:48;27.13;;;13.33;;
7003;SDS011;3542;48.812;9.146;2023-01-29T17:55:14;30.07;;;12.83;;
7003;SDS011;3542;48.812;9.146;2023-01-29T17:57:39;25.17;;;11.80;;
7003;SDS011;3542;48.812;9.146;2023-01-29T18:00:11;24.03;;;10.67;;
7003;SDS011;3542;48.812;9.146;2023-01-29T18:02:45;26.17;;;11.87;;
7003;SDS011;3542;48.812;9.146;2023-01-29T18:05:11;22.87;;;11.10;;
7003;SDS011;3542;48.812;9.146;2023-01-29T18:07:38;24.17;;;10.30;;
7003;SDS011;3542;48.812;9.146;2023-01-29T18:10:05;27.43;;;11.20;;
7003;SDS011;3542;48.812;9.146;2023-01-29T18:12:31;20.90;;;9.90;;
7003;SDS011;3542;48.812;9.146;2023-01-29T18:14:56;22.80;;;9.37;;
7003;SDS011;3542;48.812;9.146;2023-01-29T18:17:22;21.93;;;10.33;;
7003;SDS011;3542;48.812;9.146;2023-01-29T18:19:48;24.10;;;12.27;;
7003;SDS011;3542;48.812;9.146;2023-01-29T18:22:13;22.50;;;12.20;;
7003;SDS011;3542;48.812;9.146;2023-01-29T18:24:39;34.40;;;12.40;;
7003;SDS011;3542;48.812;9.146;2023-01-29T18:27:05;27.90;;;12.60;;
7003;SDS011;3542;48.812;9.146;2023-01-29T18:29:30;24.97;;;11.53;;
7003;SDS011;3542;48.812;9.146;2023-01-29T18:31:56;22.77;;;10.63;;
7003;SDS011;3542;48.812;9.146;2023-01-29T18:34:21;20.43;;;11.80;;
7003;SDS011;3542;48.812;9.146;2023-01-29T18:36:47;21.57;;;9.83;;
7003;SDS011;3542;48.812;9.146;2023-01-29T18:39:13;23.53;;;10.77;;
7003;SDS011;3542;48.812;9.146;2023-01-29T18:41:39;35.67;;;15.07;;
7003;SDS011;3542;48.812;9.146;2023-01-29T18:44:04;25.37;;;12.50;;
7003;SDS011;3542;48.812;9.146;2023-01-29T18:46:30;27.93;;;11.93;;
7003;SDS011;3542;48.812;9.146;2023-01-29T18:48:56;25.67;;;10.43;;
7003;SDS011;3542;48.812;9.146;2023-01-29T18:51:21;20.70;;;9.23;;
7003;SDS011;3542;48.812;9.146;2023-01-29T18:53:50;22.23;;;10.53;;
7003;SDS011;3542;48.812;9.146;2023-01-29T18:56:15;27.57;;;12.00;;
7003;SDS011;3542;48.812;9.146;2023-01-29T18:58:41;22.13;;;10.47;;
7003;SDS011;3542;48.812;9.146;2023-01-29T19:01:09;21.23;;;10.10;;
7003;SDS011;3542;48.812;9.146;2023-01-29T19:03:36;22.23;;;9.30;;
7003;SDS011;3542;48.812;9.146;2023-01-29T19:06:03;23.17;;;10.40;;
7003;SDS011;3542;48.812;9.146;2023-01-29T19:08:30;22.70;;;10.60;;